Time;durP1;ratioP1;P1;durP2;ratioP2;P2;SDS_P1;SDS_P2;PMS_P1;PMS_P2;Temp;Humidity;BMP_temperature;BMP_pressure;BME280_temperature;BME280_humidity;BME280_pressure;Samples;Min_cycle;Max_cycle;Signal;HPM_P1;HPM_P2
2021/05/30 00:02:00;;;;;;;7.68;4.53;;;;;;;8.64;73.24;101568.97;5046036;28;20033;-77
2021/05/30 00:04:26;;;;;;;6.30;4.28;;;;;;;8.60;73.18;101571.53;5042442;28;20025;-77
2021/05/30 00:06:51;;;;;;;7.65;4.18;;;;;;;8.60;73.60;101577.69;5046612;28;20112;-77
2021/05/30 00:09:16;;;;;;;7.90;4.25;;;;;;;8.64;72.00;101574.22;5044065;28;20033;-77
2021/05/30 00:11:42;;;;;;;6.32;4.10;;;;;;;8.67;71.89;101582.22;5028660;28;20036;-77
2021/05/30 00:14:08;;;;;;;9.18;4.50;;;;;;;8.65;71.41;101589.19;5048764;28;20047;-77
2021/05/30 00:16:33;;;;;;;5.82;3.92;;;;;;;8.66;70.36;101583.06;5050363;28;20029;-78
2021/05/30 00:19:00;;;;;;;6.32;3.85;;;;;;;8.63;70.14;101590.91;5053722;28;20033;-78
2021/05/30 00:21:26;;;;;;;6.32;3.78;;;;;;;8.58;69.76;101589.91;5052339;28;20080;-77
2021/05/30 00:23:51;;;;;;;5.78;3.35;;;;;;;8.49;69.84;101598.53;5054037;28;20036;-78
2021/05/30 00:26:17;;;;;;;5.00;3.17;;;;;;;8.39;69.31;101583.44;5050282;28;20045;-77
2021/05/30 00:28:42;;;;;;;6.72;3.80;;;;;;;8.33;69.68;101589.44;5051337;28;20323;-78
2021/05/30 00:31:08;;;;;;;6.85;3.58;;;;;;;8.27;68.93;101585.78;5049343;28;20037;-78
2021/05/30 00:33:33;;;;;;;6.32;3.20;;;;;;;8.25;68.82;101590.09;5050015;28;20053;-77
2021/05/30 00:35:58;;;;;;;4.85;3.08;;;;;;;8.22;68.61;101585.66;5051954;28;20040;-78
2021/05/30 00:38:24;;;;;;;6.97;3.05;;;;;;;8.19;68.34;101580.34;5049912;28;20037;-78
2021/05/30 00:40:51;;;;;;;5.03;3.00;;;;;;;8.16;68.23;101596.06;5052744;28;20033;-78
2021/05/30 00:43:16;;;;;;;7.72;3.00;;;;;;;8.07;68.61;101590.63;5048037;28;20033;-77
2021/05/30 00:45:42;;;;;;;5.60;2.90;;;;;;;7.99;68.71;101586.94;5052322;28;20028;-78
2021/05/30 00:48:07;;;;;;;5.40;2.63;;;;;;;7.89;68.35;101591.13;5048974;28;20175;-78
2021/05/30 00:50:33;;;;;;;6.18;3.03;;;;;;;7.82;68.15;101590.09;5050505;28;20044;-78
2021/05/30 00:52:58;;;;;;;7.20;3.22;;;;;;;7.78;68.36;101588.28;5050971;28;20032;-78
2021/05/30 00:55:25;;;;;;;4.75;2.65;;;;;;;7.74;68.34;101586.41;5049455;28;20045;-78
2021/05/30 00:57:51;;;;;;;4.47;2.53;;;;;;;7.68;68.27;101595.06;5046171;28;20037;-77
2021/05/30 01:00:16;;;;;;;5.10;2.80;;;;;;;7.60;68.61;101594.00;5042490;28;20041;-77
2021/05/30 01:02:42;;;;;;;5.38;2.85;;;;;;;7.58;68.33;101600.06;5044757;28;20128;-77
2021/05/30 01:05:09;;;;;;;4.30;2.53;;;;;;;7.53;68.92;101602.56;5040943;28;20029;-77
2021/05/30 01:07:41;;;;;;;8.60;2.70;;;;;;;7.47;68.52;101595.44;5042963;28;20112;-77
2021/05/30 01:10:16;;;;;;;5.53;3.00;;;;;;;7.40;68.88;101601.38;5042237;28;20032;-77
2021/05/30 01:12:42;;;;;;;11.65;2.75;;;;;;;7.34;69.20;101595.13;5044844;28;20032;-77
2021/05/30 01:15:08;;;;;;;4.93;2.60;;;;;;;7.28;69.21;101600.22;5041731;28;20068;-77
2021/05/30 01:17:34;;;;;;;6.43;2.95;;;;;;;7.24;69.20;101601.88;5041999;28;20077;-77
2021/05/30 01:20:02;;;;;;;4.72;2.72;;;;;;;7.18;69.28;101594.75;5041866;28;20408;-77
2021/05/30 01:22:29;;;;;;;4.60;2.90;;;;;;;7.12;69.78;101598.94;5047841;28;20069;-77
2021/05/30 01:24:55;;;;;;;5.90;3.15;;;;;;;7.06;69.84;101599.69;5042829;28;20035;-77
2021/05/30 01:27:20;;;;;;;4.95;2.47;;;;;;;6.98;70.01;101598.59;5043715;28;20037;-78
2021/05/30 01:29:45;;;;;;;7.18;2.60;;;;;;;6.86;70.29;101604.41;5048263;28;20033;-78
2021/05/30 01:32:10;;;;;;;4.53;2.80;;;;;;;6.77;70.69;101610.31;5045634;28;20037;-77
2021/05/30 01:34:36;;;;;;;6.05;2.90;;;;;;;6.74;70.75;101612.84;5048374;28;20082;-78
2021/05/30 01:37:01;;;;;;;4.90;2.88;;;;;;;6.70;70.79;101617.97;5045432;28;20400;-77
2021/05/30 01:39:28;;;;;;;6.63;3.13;;;;;;;6.66;70.90;101616.13;5047702;28;20544;-77
2021/05/30 01:41:53;;;;;;;6.88;2.90;;;;;;;6.60;70.88;101619.44;5048370;28;20036;-77
2021/05/30 01:44:18;;;;;;;6.43;2.80;;;;;;;6.55;71.00;101627.22;5046352;28;20032;-78
2021/05/30 01:46:44;;;;;;;5.70;2.83;;;;;;;6.51;71.23;101625.34;5049606;28;20734;-78
2021/05/30 01:49:09;;;;;;;4.50;2.80;;;;;;;6.45;71.60;101619.94;5046110;28;20124;-78
2021/05/30 01:51:36;;;;;;;7.30;2.90;;;;;;;6.41;71.18;101627.66;5050432;28;20436;-78
2021/05/30 01:54:10;;;;;;;6.00;2.78;;;;;;;6.36;71.43;101622.28;5042108;28;20036;-77
2021/05/30 01:59:20;;;;;;;4.80;2.30;;;;;;;6.30;71.59;101622.13;5042030;28;20038;-77
2021/05/30 02:01:48;;;;;;;5.40;2.88;;;;;;;6.26;71.70;101622.84;5042290;28;20044;-77
2021/05/30 02:04:13;;;;;;;6.00;2.97;;;;;;;6.21;71.62;101624.44;5040470;28;20029;-77
2021/05/30 02:06:41;;;;;;;9.20;3.35;;;;;;;6.14;71.99;101628.66;5045893;28;20040;-78
2021/05/30 02:09:07;;;;;;;5.03;2.75;;;;;;;6.07;72.35;101622.31;5045896;28;20110;-77
2021/05/30 02:11:32;;;;;;;8.07;3.35;;;;;;;5.99;72.20;101623.81;5047069;28;20045;-77
2021/05/30 02:14:00;;;;;;;6.10;3.00;;;;;;;5.95;72.58;101632.47;5044878;28;20057;-78
2021/05/30 02:16:27;;;;;;;5.95;2.55;;;;;;;5.91;72.21;101641.00;5046128;28;20056;-78
2021/05/30 02:18:52;;;;;;;4.78;2.90;;;;;;;5.84;72.81;101644.28;5050386;28;20120;-78
2021/05/30 02:21:17;;;;;;;5.28;2.80;;;;;;;5.78;73.13;101645.00;5045520;28;20053;-77
2021/05/30 02:23:43;;;;;;;6.35;3.13;;;;;;;5.71;73.87;101641.31;5044441;28;20041;-77
2021/05/30 02:26:08;;;;;;;6.82;3.15;;;;;;;5.63;74.00;101644.50;5027286;28;20039;-77
2021/05/30 02:28:33;;;;;;;6.40;3.58;;;;;;;5.57;74.24;101645.19;5049787;28;20036;-78
2021/05/30 02:30:59;;;;;;;8.70;3.50;;;;;;;5.55;74.16;101656.47;5048107;28;20029;-78
2021/05/30 02:33:24;;;;;;;5.32;3.20;;;;;;;5.51;74.27;101646.75;5050815;28;20033;-77
2021/05/30 02:35:49;;;;;;;9.00;3.50;;;;;;;5.47;74.57;101645.75;5050209;28;20048;-77
2021/05/30 02:38:15;;;;;;;6.55;3.40;;;;;;;5.44;74.59;101643.91;5049943;28;20036;-78
2021/05/30 02:40:41;;;;;;;6.90;3.45;;;;;;;5.44;74.52;101643.03;5053078;28;20408;-78
2021/05/30 02:43:06;;;;;;;8.55;3.40;;;;;;;5.41;74.47;101642.94;5049384;28;20088;-77
2021/05/30 02:45:32;;;;;;;6.70;3.58;;;;;;;5.41;74.82;101642.94;5053156;28;20060;-77
2021/05/30 02:47:57;;;;;;;5.40;2.97;;;;;;;5.37;74.29;101648.91;5050054;28;20041;-78
2021/05/30 02:50:22;;;;;;;6.80;2.90;;;;;;;5.34;73.68;101654.03;5051785;28;20438;-78
2021/05/30 02:52:48;;;;;;;6.45;3.05;;;;;;;5.36;74.07;101654.97;5050448;28;20037;-77
2021/05/30 02:55:13;;;;;;;4.70;2.67;;;;;;;5.33;74.36;101660.13;5048868;28;20082;-78
2021/05/30 02:57:39;;;;;;;5.05;3.00;;;;;;;5.26;74.06;101669.47;5050157;28;20487;-78
2021/05/30 03:00:07;;;;;;;4.82;2.63;;;;;;;5.18;73.89;101660.47;5050641;28;20029;-77
2021/05/30 03:02:32;;;;;;;4.55;2.80;;;;;;;5.12;74.24;101662.91;5055631;28;20131;-78
2021/05/30 03:04:57;;;;;;;7.88;3.00;;;;;;;5.10;74.83;101667.19;5051366;28;20072;-78
2021/05/30 03:07:23;;;;;;;7.00;2.85;;;;;;;5.10;75.37;101667.19;5053061;28;20041;-78
2021/05/30 03:09:48;;;;;;;5.53;3.00;;;;;;;5.08;75.67;101672.34;5052806;28;20036;-78
2021/05/30 03:12:16;;;;;;;6.35;2.70;;;;;;;5.03;75.18;101677.47;5052308;28;20048;-78
2021/05/30 03:14:41;;;;;;;5.97;2.92;;;;;;;4.91;75.04;101665.66;5049420;28;20933;-76
2021/05/30 03:17:07;;;;;;;5.93;2.33;;;;;;;4.89;74.88;101677.78;5056650;28;20048;-78
2021/05/30 03:19:32;;;;;;;3.95;2.50;;;;;;;4.85;74.85;101671.56;5053377;28;20037;-78
2021/05/30 03:21:58;;;;;;;6.63;2.92;;;;;;;4.87;75.33;101672.50;5055023;28;20040;-77
2021/05/30 03:24:23;;;;;;;6.38;3.00;;;;;;;4.92;75.51;101667.44;5051132;28;20037;-78
2021/05/30 03:26:48;;;;;;;5.03;2.63;;;;;;;4.94;75.69;101673.63;5053263;28;20536;-78
2021/05/30 03:29:14;;;;;;;6.93;3.22;;;;;;;4.91;74.34;101671.78;5049677;28;20481;-78
2021/05/30 03:31:39;;;;;;;6.03;3.22;;;;;;;4.89;74.68;101677.78;5050139;28;20063;-78
2021/05/30 03:34:05;;;;;;;5.38;3.28;;;;;;;4.82;76.42;101668.81;5050199;28;20124;-78
2021/05/30 03:36:32;;;;;;;7.00;3.53;;;;;;;4.73;76.91;101669.41;5048035;28;20034;-78
2021/05/30 03:39:04;;;;;;;6.70;3.08;;;;;;;4.75;76.89;101670.34;5052073;28;20086;-78
2021/05/30 03:41:37;;;;;;;5.03;3.13;;;;;;;4.84;76.59;101672.41;5048788;28;20393;-77
2021/05/30 03:44:04;;;;;;;5.07;3.22;;;;;;;4.90;76.45;101672.63;5048560;28;20722;-78
2021/05/30 03:46:30;;;;;;;4.88;2.92;;;;;;;5.03;75.93;101676.53;5047663;28;20377;-77
2021/05/30 03:48:56;;;;;;;5.97;2.88;;;;;;;5.18;75.96;101676.19;5050996;28;20055;-77
2021/05/30 03:51:21;;;;;;;5.30;2.90;;;;;;;5.33;75.49;101668.84;5047261;28;20033;-78
2021/05/30 03:53:47;;;;;;;6.22;2.88;;;;;;;5.45;75.41;101671.00;5049934;28;20104;-77
2021/05/30 03:56:13;;;;;;;6.70;2.88;;;;;;;5.54;74.58;101666.06;5047902;28;20033;-77
2021/05/30 03:58:39;;;;;;;7.38;2.95;;;;;;;5.64;74.28;101664.63;5048435;28;20552;-77
2021/05/30 04:01:04;;;;;;;5.28;3.13;;;;;;;5.72;73.54;101665.75;5049786;28;20036;-77
2021/05/30 04:03:29;;;;;;;5.75;2.72;;;;;;;5.83;73.58;101671.34;5047046;28;20072;-77
2021/05/30 04:05:55;;;;;;;5.55;2.50;;;;;;;5.91;73.25;101667.22;5050013;28;20025;-78
2021/05/30 04:08:20;;;;;;;4.95;2.67;;;;;;;6.01;73.25;101669.31;5045669;28;20038;-78
2021/05/30 04:10:46;;;;;;;6.57;2.97;;;;;;;6.15;73.00;101662.75;5031677;28;20044;-77
2021/05/30 04:13:12;;;;;;;4.88;2.58;;;;;;;6.29;72.55;101660.56;5047196;28;20420;-77
2021/05/30 04:15:37;;;;;;;5.43;2.80;;;;;;;6.41;72.61;101665.25;5045894;28;20040;-77
2021/05/30 04:18:03;;;;;;;5.70;2.58;;;;;;;6.55;72.13;101666.56;5045365;28;20099;-77
2021/05/30 04:20:28;;;;;;;5.03;2.60;;;;;;;6.72;71.91;101666.13;5044985;28;20033;-77
2021/05/30 04:22:53;;;;;;;5.38;2.50;;;;;;;6.83;71.65;101664.69;5048418;28;20516;-77
2021/05/30 04:25:19;;;;;;;3.80;2.40;;;;;;;6.96;71.24;101665.91;5045949;28;20087;-77
2021/05/30 04:27:46;;;;;;;3.88;2.17;;;;;;;7.11;70.73;101665.44;5049450;28;20033;-77
2021/05/30 04:30:13;;;;;;;3.72;2.40;;;;;;;7.23;71.21;101665.72;5047291;28;20029;-77
2021/05/30 04:32:39;;;;;;;6.20;2.67;;;;;;;7.37;69.96;101664.34;5055678;28;20044;-77
2021/05/30 04:35:07;;;;;;;5.10;2.47;;;;;;;7.53;69.28;101667.38;5050852;28;20041;-78
2021/05/30 04:37:32;;;;;;;6.50;2.50;;;;;;;7.67;69.28;101668.56;5059234;28;20052;-77
2021/05/30 04:39:58;;;;;;;4.78;2.70;;;;;;;7.79;68.89;101668.88;5053414;28;20418;-78
2021/05/30 04:42:24;;;;;;;5.18;2.40;;;;;;;7.90;68.64;101667.38;5047804;28;20032;-78
2021/05/30 04:44:49;;;;;;;5.05;2.55;;;;;;;8.02;68.26;101668.53;5049082;28;20508;-78
2021/05/30 04:47:15;;;;;;;5.38;2.33;;;;;;;8.11;67.31;101661.72;5046993;28;20033;-77
2021/05/30 04:49:41;;;;;;;4.72;2.40;;;;;;;8.21;66.69;101667.19;5050198;28;20541;-78
2021/05/30 04:52:07;;;;;;;4.88;2.70;;;;;;;8.34;65.01;101664.84;5047097;28;20036;-78
2021/05/30 04:54:32;;;;;;;5.22;2.85;;;;;;;8.48;65.21;101666.91;5045667;28;20033;-77
2021/05/30 04:56:58;;;;;;;5.03;3.08;;;;;;;8.56;64.91;101666.19;5049378;28;20067;-78
2021/05/30 04:59:23;;;;;;;7.03;3.28;;;;;;;8.65;63.27;101665.50;5046513;28;20033;-78
2021/05/30 05:01:48;;;;;;;4.90;2.67;;;;;;;8.76;63.15;101665.72;5048918;28;20485;-78
2021/05/30 05:04:14;;;;;;;6.05;3.15;;;;;;;8.88;63.98;101668.59;5044210;28;20464;-77
2021/05/30 05:06:39;;;;;;;5.70;2.97;;;;;;;8.97;62.79;101673.13;5047790;28;20040;-76
2021/05/30 05:09:05;;;;;;;6.07;3.22;;;;;;;9.05;63.85;101662.75;5046577;28;20496;-78
2021/05/30 05:11:30;;;;;;;7.05;3.22;;;;;;;9.13;63.71;101658.50;5046517;28;20493;-78
2021/05/30 05:13:55;;;;;;;6.90;3.15;;;;;;;9.19;63.09;101671.75;5047241;28;20504;-77
2021/05/30 05:16:21;;;;;;;5.05;3.15;;;;;;;9.27;63.24;101667.50;5044904;28;20553;-78
2021/05/30 05:18:46;;;;;;;4.68;3.08;;;;;;;9.37;62.09;101672.06;5047936;28;20036;-77
2021/05/30 05:21:11;;;;;;;4.78;3.00;;;;;;;9.43;62.95;101673.94;5044942;28;20112;-78
2021/05/30 05:23:37;;;;;;;6.00;3.20;;;;;;;9.52;61.95;101675.84;5046064;28;20048;-77
2021/05/30 05:26:04;;;;;;;6.30;3.20;;;;;;;9.62;62.77;101675.16;5051228;28;20032;-78
2021/05/30 05:28:31;;;;;;;5.03;2.22;;;;;;;9.70;62.55;101675.25;5044602;28;20040;-77
2021/05/30 05:30:56;;;;;;;5.25;2.42;;;;;;;9.80;61.21;101672.78;5044562;28;20033;-78
2021/05/30 05:33:23;;;;;;;4.82;2.63;;;;;;;9.81;60.63;101671.03;5045138;28;20510;-78
2021/05/30 05:35:49;;;;;;;5.63;2.97;;;;;;;9.86;60.50;101670.25;5043952;28;20046;-78
2021/05/30 05:38:15;;;;;;;5.28;2.78;;;;;;;9.92;61.10;101672.06;5049060;28;20037;-78
2021/05/30 05:40:40;;;;;;;5.90;2.60;;;;;;;9.97;61.02;101673.03;5044582;28;20037;-78
2021/05/30 05:43:07;;;;;;;4.93;2.83;;;;;;;10.02;60.74;101671.34;5048853;28;20065;-77
2021/05/30 05:45:33;;;;;;;5.30;2.92;;;;;;;10.04;60.48;101663.47;5044644;28;20033;-77
2021/05/30 05:48:00;;;;;;;6.93;2.38;;;;;;;10.09;59.78;101667.94;5045652;28;20033;-77
2021/05/30 05:50:26;;;;;;;6.68;2.60;;;;;;;10.10;60.36;101669.69;5046606;28;20519;-77
2021/05/30 05:52:52;;;;;;;5.35;2.53;;;;;;;10.14;61.31;101668.00;5040908;28;20488;-77
2021/05/30 05:55:19;;;;;;;6.18;2.70;;;;;;;10.21;61.25;101668.97;5042052;28;20040;-77
2021/05/30 05:57:48;;;;;;;6.40;3.50;;;;;;;10.21;62.16;101671.59;5053400;28;20051;-77
2021/05/30 06:00:16;;;;;;;6.18;2.88;;;;;;;10.30;62.14;101677.06;5062268;28;20086;-78
2021/05/30 06:02:42;;;;;;;6.57;2.97;;;;;;;10.37;61.71;101673.59;5049988;28;20033;-77
2021/05/30 06:05:08;;;;;;;4.40;2.72;;;;;;;10.42;62.11;101677.19;5042398;28;20029;-78
2021/05/30 06:07:36;;;;;;;4.95;2.88;;;;;;;10.44;62.62;101679.84;5043030;28;20485;-77
2021/05/30 06:10:03;;;;;;;5.10;2.78;;;;;;;10.50;62.98;101679.94;5044220;28;20041;-77
2021/05/30 06:12:28;;;;;;;9.98;2.90;;;;;;;10.55;62.56;101685.28;5043365;28;20086;-77
2021/05/30 06:14:54;;;;;;;5.88;2.85;;;;;;;10.68;62.84;101682.78;5042367;28;20651;-78
2021/05/30 06:17:19;;;;;;;7.97;3.05;;;;;;;10.70;62.41;101681.06;5041596;28;20448;-78
2021/05/30 06:19:44;;;;;;;7.10;3.17;;;;;;;10.73;61.88;101683.72;5042920;28;20404;-78
2021/05/30 06:22:10;;;;;;;6.32;2.75;;;;;;;10.75;62.05;101689.03;5039613;28;20088;-78
2021/05/30 06:24:36;;;;;;;5.80;2.55;;;;;;;10.82;61.78;101685.63;5043806;28;20037;-78
2021/05/30 06:27:03;;;;;;;6.13;2.60;;;;;;;10.84;62.50;101691.78;5039349;28;20044;-78
2021/05/30 06:29:29;;;;;;;5.88;2.70;;;;;;;10.84;61.51;101690.88;5041799;28;21047;-78
2021/05/30 06:31:55;;;;;;;6.18;2.53;;;;;;;10.90;61.48;101694.50;5041665;28;20484;-77
2021/05/30 06:34:20;;;;;;;4.15;2.13;;;;;;;11.03;60.73;101692.88;5041159;28;20092;-78
2021/05/30 06:36:50;;;;;;;5.93;2.67;;;;;;;11.11;60.28;101688.56;5042572;28;20040;-78
2021/05/30 06:39:16;;;;;;;3.33;1.75;;;;;;;11.15;58.33;101689.47;5040292;28;20555;-78
2021/05/30 06:41:41;;;;;;;5.43;1.95;;;;;;;11.16;57.13;101691.22;5042258;28;20068;-77
2021/05/30 06:44:06;;;;;;;3.42;1.65;;;;;;;11.13;55.78;101685.91;5047038;28;20108;-78
2021/05/30 06:46:33;;;;;;;6.20;2.08;;;;;;;11.17;57.01;101685.09;5039209;28;20482;-78
2021/05/30 06:48:58;;;;;;;5.82;1.90;;;;;;;11.26;57.50;101690.44;5043425;28;20115;-78
2021/05/30 06:51:29;;;;;;;5.93;2.33;;;;;;;11.35;56.28;101692.31;5041002;28;20461;-78
2021/05/30 06:53:54;;;;;;;4.55;1.83;;;;;;;11.48;56.15;101694.19;5038961;28;20037;-77
2021/05/30 06:56:20;;;;;;;6.65;1.80;;;;;;;11.59;56.53;101689.88;5039889;28;20861;-77
2021/05/30 06:58:46;;;;;;;7.05;2.08;;;;;;;11.65;56.83;101689.03;5039881;28;20055;-78
2021/05/30 07:01:12;;;;;;;3.67;2.13;;;;;;;11.77;56.97;101682.97;5043493;28;20611;-78
2021/05/30 07:03:37;;;;;;;4.80;2.20;;;;;;;11.84;56.32;101682.09;5039575;28;20063;-78
2021/05/30 07:06:03;;;;;;;5.70;1.80;;;;;;;11.86;55.64;101688.34;5042880;28;20040;-78
2021/05/30 07:08:29;;;;;;;4.72;1.88;;;;;;;11.90;54.63;101690.13;5044689;28;20096;-78
2021/05/30 07:10:54;;;;;;;3.63;1.85;;;;;;;12.01;55.08;101690.22;5042922;28;20037;-78
2021/05/30 07:13:20;;;;;;;7.20;1.92;;;;;;;12.00;53.29;101691.09;5046071;28;20034;-78
2021/05/30 07:15:45;;;;;;;3.55;1.98;;;;;;;11.97;53.82;101697.25;5044501;28;20024;-78
2021/05/30 07:18:11;;;;;;;4.03;1.88;;;;;;;12.07;53.33;101687.59;5045584;28;20041;-78
2021/05/30 07:20:36;;;;;;;3.80;1.85;;;;;;;12.10;52.83;101702.59;5042835;28;20029;-78
2021/05/30 07:23:02;;;;;;;3.50;2.08;;;;;;;12.16;52.78;101695.59;5050938;28;20033;-78
2021/05/30 07:25:27;;;;;;;3.60;1.70;;;;;;;12.28;52.86;101689.47;5058481;28;20107;-78
2021/05/30 07:27:53;;;;;;;3.53;1.52;;;;;;;12.32;52.43;101682.47;5050925;28;20035;-78
2021/05/30 07:30:19;;;;;;;2.63;1.60;;;;;;;12.40;52.82;101696.59;5046548;28;20552;-78
2021/05/30 07:32:45;;;;;;;3.55;1.42;;;;;;;12.52;51.90;101693.13;5041070;28;20451;-78
2021/05/30 07:35:10;;;;;;;6.43;2.10;;;;;;;12.57;51.32;101694.91;5049399;28;20083;-78
2021/05/30 07:37:36;;;;;;;4.85;1.50;;;;;;;12.62;50.10;101690.50;5046809;28;20470;-78
2021/05/30 07:40:03;;;;;;;3.70;1.50;;;;;;;12.70;49.76;101691.41;5044717;28;20475;-78
2021/05/30 07:42:28;;;;;;;4.15;1.50;;;;;;;12.74;49.26;101680.88;5046671;28;20148;-78
2021/05/30 07:44:54;;;;;;;4.40;1.63;;;;;;;12.87;49.88;101683.53;5053613;28;20124;-78
2021/05/30 07:47:21;;;;;;;3.75;1.48;;;;;;;13.01;49.84;101685.34;5047734;28;20036;-78
2021/05/30 07:49:47;;;;;;;3.75;1.80;;;;;;;13.06;48.41;101688.88;5044196;28;20029;-78
2021/05/30 07:52:12;;;;;;;3.95;1.60;;;;;;;13.10;49.34;101694.22;5046926;28;20037;-78
2021/05/30 07:54:37;;;;;;;3.42;1.50;;;;;;;13.22;48.53;101688.03;5045668;28;20033;-78
2021/05/30 07:57:03;;;;;;;4.93;1.60;;;;;;;13.24;48.07;101690.69;5043596;28;20037;-78
2021/05/30 07:59:29;;;;;;;3.58;1.40;;;;;;;13.27;48.17;101693.38;5044857;28;20036;-78
2021/05/30 08:01:55;;;;;;;2.25;1.10;;;;;;;13.33;47.09;101688.94;5027204;28;20517;-78
2021/05/30 08:04:20;;;;;;;5.45;1.40;;;;;;;13.40;45.13;101688.97;5046492;28;20059;-78
2021/05/30 08:06:46;;;;;;;2.00;1.05;;;;;;;13.44;44.79;101685.41;5047261;28;20615;-78
2021/05/30 08:09:11;;;;;;;4.03;1.42;;;;;;;13.54;43.24;101679.25;5046811;28;20037;-78
2021/05/30 08:11:37;;;;;;;5.80;1.63;;;;;;;13.65;42.87;101689.84;5046779;28;20033;-79
2021/05/30 08:14:02;;;;;;;3.55;1.25;;;;;;;13.61;42.92;101688.09;5053996;28;20029;-78
2021/05/30 08:16:27;;;;;;;3.10;1.33;;;;;;;13.57;42.99;101682.78;5057653;28;20427;-78
2021/05/30 08:18:53;;;;;;;2.58;1.27;;;;;;;13.55;42.63;101687.22;5054400;28;20098;-78
2021/05/30 08:21:18;;;;;;;1.95;1.10;;;;;;;13.66;43.22;101681.03;5051839;28;20037;-78
2021/05/30 08:23:44;;;;;;;4.03;1.45;;;;;;;13.67;43.40;101682.78;5053572;28;20396;-78
2021/05/30 08:26:10;;;;;;;2.50;1.20;;;;;;;13.73;43.26;101683.66;5046929;28;20029;-78
2021/05/30 08:28:36;;;;;;;3.20;1.25;;;;;;;13.81;41.65;101687.19;5058471;28;20040;-78
2021/05/30 08:31:03;;;;;;;2.55;1.30;;;;;;;13.89;42.10;101684.53;5050374;28;20081;-78
2021/05/30 08:33:29;;;;;;;4.15;1.30;;;;;;;13.90;41.47;101680.97;5060051;28;20037;-78
2021/05/30 08:35:55;;;;;;;2.58;1.30;;;;;;;14.03;43.52;101685.38;5049391;28;20463;-78
2021/05/30 08:38:21;;;;;;;3.38;1.50;;;;;;;13.94;40.02;101680.09;5045191;28;20033;-78
2021/05/30 08:40:48;;;;;;;2.90;1.40;;;;;;;13.87;41.88;101682.75;5048265;28;20119;-78
2021/05/30 08:43:15;;;;;;;4.10;1.20;;;;;;;13.91;41.27;101682.78;5046917;28;20060;-78
2021/05/30 08:45:44;;;;;;;3.10;1.35;;;;;;;13.88;39.87;101685.41;5053853;28;20021;-77
2021/05/30 08:48:09;;;;;;;2.55;1.40;;;;;;;13.98;42.25;101684.50;5047161;28;20493;-77
2021/05/30 08:50:35;;;;;;;2.47;1.20;;;;;;;14.07;41.59;101672.09;5050502;28;20037;-77
2021/05/30 08:53:00;;;;;;;3.88;1.35;;;;;;;14.15;42.87;101681.84;5044974;28;20041;-75
2021/05/30 08:55:26;;;;;;;3.47;1.67;;;;;;;14.32;41.95;101679.09;5046287;28;20033;-75
2021/05/30 08:57:51;;;;;;;3.58;1.55;;;;;;;14.36;42.66;101677.34;5043752;28;20098;-76
2021/05/30 09:00:22;;;;;;;3.17;1.35;;;;;;;14.46;42.84;101676.41;5040298;28;20462;-75
2021/05/30 09:03:11;;;;;;;3.42;1.27;;;;;;;14.55;40.61;101686.16;5040329;28;20112;-77
2021/05/30 09:05:37;;;;;;;2.92;1.52;;;;;;;14.46;41.18;101679.06;5042218;28;20038;-76
2021/05/30 09:08:02;;;;;;;2.75;1.20;;;;;;;14.32;42.80;101673.81;5040799;28;20408;-76
2021/05/30 09:10:29;;;;;;;2.50;1.30;;;;;;;14.43;42.43;101673.75;5041259;28;20041;-75
2021/05/30 09:13:17;;;;;;;2.45;1.10;;;;;;;14.69;42.11;101668.38;5042281;28;20068;-74
2021/05/30 09:16:06;;;;;;;3.50;1.42;;;;;;;14.83;42.14;101670.97;5043400;28;20041;-76
2021/05/30 09:18:35;;;;;;;3.28;1.50;;;;;;;14.92;42.33;101673.56;5043031;28;20045;-77
2021/05/30 09:21:09;;;;;;;2.67;1.20;;;;;;;14.94;40.35;101671.78;5041736;28;20049;-76
2021/05/30 09:23:45;;;;;;;2.85;1.20;;;;;;;15.07;41.11;101668.16;5040541;28;20049;-76
2021/05/30 09:26:23;;;;;;;4.45;1.70;;;;;;;15.18;41.40;101668.06;5025182;28;20414;-76
2021/05/30 09:29:08;;;;;;;5.70;1.20;;;;;;;15.19;40.41;101656.53;5038527;28;20037;-76
2021/05/30 09:31:43;;;;;;;2.85;1.33;;;;;;;15.00;41.65;101674.41;5040658;28;20037;-76
2021/05/30 09:34:28;;;;;;;4.15;1.50;;;;;;;15.22;40.15;101663.59;5042297;28;20033;-76
2021/05/30 09:36:54;;;;;;;3.30;1.13;;;;;;;15.42;40.51;101674.09;5041571;28;20044;-76
2021/05/30 09:39:45;;;;;;;2.95;1.40;;;;;;;15.59;41.02;101664.22;5051674;28;20033;-76
2021/05/30 09:42:34;;;;;;;4.70;1.50;;;;;;;15.88;40.63;101676.41;5038908;28;20549;-76
2021/05/30 09:45:06;;;;;;;2.75;1.20;;;;;;;15.97;40.38;101665.66;5040853;28;20405;-76
2021/05/30 09:47:32;;;;;;;;;;;;;;;16.01;40.63;101670.06;5034035;28;20041;-76
2021/05/30 09:49:57;;;;;;;2.60;1.27;;;;;;;15.99;38.76;101663.84;5040070;28;19916;-75
2021/05/30 09:52:38;;;;;;;3.47;1.40;;;;;;;15.96;39.58;101669.22;5037048;28;20033;-76
2021/05/30 09:55:19;;;;;;;3.47;1.40;;;;;;;16.10;38.93;101667.28;5038367;28;20037;-76
2021/05/30 09:58:19;;;;;;;2.17;1.10;;;;;;;16.36;39.32;101668.78;5043545;28;20350;-76
2021/05/30 10:00:56;;;;;;;3.75;1.30;;;;;;;16.69;39.36;101661.22;5039513;28;20034;-77
2021/05/30 10:03:23;;;;;;;2.35;1.10;;;;;;;17.03;39.16;101662.56;5040076;28;20029;-76
2021/05/30 10:05:48;;;;;;;2.72;1.23;;;;;;;17.17;39.28;101666.81;5039706;28;20408;-76
2021/05/30 10:08:18;;;;;;;3.83;1.52;;;;;;;17.11;38.80;101664.22;5042409;28;20036;-74
2021/05/30 10:10:45;;;;;;;2.42;1.42;;;;;;;17.44;39.09;101655.69;5039573;28;20090;-74
2021/05/30 10:13:11;;;;;;;1.95;1.00;;;;;;;17.77;38.42;101672.03;5041395;28;20037;-74
2021/05/30 10:15:38;;;;;;;3.72;1.50;;;;;;;17.76;37.94;101659.56;5038438;28;20030;-75
2021/05/30 10:18:10;;;;;;;5.10;1.58;;;;;;;17.62;37.25;101657.16;5040025;28;20125;-75
2021/05/30 10:20:38;;;;;;;2.10;1.30;;;;;;;17.59;38.91;101653.69;5046524;28;20032;-75
2021/05/30 10:23:05;;;;;;;3.33;1.30;;;;;;;18.03;38.91;101665.38;5044443;28;20049;-76
2021/05/30 10:25:33;;;;;;;2.65;1.30;;;;;;;17.92;38.06;101650.44;5040753;28;20040;-76
2021/05/30 10:28:19;;;;;;;2.55;1.25;;;;;;;17.94;37.58;101659.28;5040929;28;20045;-76
2021/05/30 10:31:11;;;;;;;2.92;1.30;;;;;;;17.65;38.00;101657.09;5039823;28;20095;-75
2021/05/30 10:33:36;;;;;;;2.53;1.00;;;;;;;17.35;38.05;101661.19;5037405;28;20596;-75
2021/05/30 10:36:12;;;;;;;4.05;1.33;;;;;;;17.37;38.75;101667.38;5041470;28;20124;-75
2021/05/30 10:38:43;;;;;;;3.55;1.45;;;;;;;16.89;39.83;101659.22;5045610;28;20477;-74
2021/05/30 10:41:20;;;;;;;2.70;1.27;;;;;;;17.34;40.18;101661.19;5037870;28;20041;-76
2021/05/30 10:43:47;;;;;;;2.63;1.15;;;;;;;17.62;39.95;101665.16;5039797;28;20040;-75
2021/05/30 10:46:13;;;;;;;2.58;1.40;;;;;;;18.24;39.02;101653.38;5035240;28;20121;-75
2021/05/30 10:48:40;;;;;;;2.72;1.20;;;;;;;18.77;38.47;101651.41;5037799;28;20037;-75
2021/05/30 10:51:34;;;;;;;1.90;1.05;;;;;;;18.92;36.90;101655.53;5042213;28;20453;-75
2021/05/30 10:54:12;;;;;;;2.40;1.20;;;;;;;19.25;35.64;101657.38;5044072;28;20068;-77
2021/05/30 10:56:54;;;;;;;2.83;1.48;;;;;;;19.41;35.72;101657.00;5042875;28;20068;-75
2021/05/30 10:59:21;;;;;;;2.33;1.00;;;;;;;19.61;35.60;101657.38;5044000;28;20036;-75
2021/05/30 11:01:48;;;;;;;3.20;1.10;;;;;;;19.83;34.33;101652.41;5044076;28;20040;-75
2021/05/30 11:04:23;;;;;;;2.10;1.02;;;;;;;19.68;34.13;101651.00;5044273;28;20056;-75
2021/05/30 11:07:05;;;;;;;6.68;1.20;;;;;;;20.06;35.20;101649.06;5042499;28;20489;-76
2021/05/30 11:09:54;;;;;;;3.10;1.20;;;;;;;19.66;33.98;101644.78;5042389;28;20042;-75
2021/05/30 11:12:31;;;;;;;3.28;1.17;;;;;;;19.74;34.76;101652.63;5043136;28;20503;-77
2021/05/30 11:15:13;;;;;;;7.00;1.80;;;;;;;19.33;34.13;101645.63;5024370;28;20040;-77
2021/05/30 11:17:41;;;;;;;3.60;1.30;;;;;;;18.98;35.76;101639.31;5041696;28;20050;-76
2021/05/30 11:20:11;;;;;;;2.45;1.20;;;;;;;19.65;34.91;101643.00;5045053;28;20037;-76
2021/05/30 11:22:42;;;;;;;1.77;1.00;;;;;;;19.34;34.48;101644.72;5042753;28;20037;-76
2021/05/30 11:25:08;;;;;;;2.10;1.17;;;;;;;19.25;35.90;101633.28;5043254;28;20035;-76
2021/05/30 11:28:00;;;;;;;2.17;1.13;;;;;;;19.30;34.74;101635.00;5042257;28;20033;-76
2021/05/30 11:30:48;;;;;;;3.33;1.33;;;;;;;19.19;35.77;101638.81;5040727;28;20116;-76
2021/05/30 11:33:26;;;;;;;1.55;1.15;;;;;;;19.45;35.42;101639.97;5043640;28;20041;-76
2021/05/30 11:35:57;;;;;;;2.75;1.15;;;;;;;19.45;35.65;101634.59;5042312;28;20500;-76